createdAt,value
2022-09-23T00:01:14.811Z,99034.94
2022-09-23T00:03:47.471Z,99078.59
2022-09-23T00:06:20.083Z,99098.84
2022-09-23T00:08:49.746Z,99030.88
2022-09-23T00:11:23.567Z,99062.38
2022-09-23T00:13:55.428Z,99071.06
2022-09-23T00:16:29.825Z,99026.06
2022-09-23T00:18:57.156Z,99025.34
2022-09-23T00:21:25.280Z,99034.72
2022-09-23T00:23:52.448Z,99144.50
2022-09-23T00:26:22.636Z,99074.94
2022-09-23T00:28:50.448Z,99131.16
2022-09-23T00:31:22.150Z,99026.78
2022-09-23T00:33:58.180Z,99025.38
2022-09-23T00:36:27.450Z,98948.72
2022-09-23T00:38:55.324Z,98978.19
2022-09-23T00:41:23.453Z,98966.94
2022-09-23T00:44:00.249Z,98990.59
2022-09-23T00:46:40.856Z,98971.16
2022-09-23T00:49:29.465Z,98983.84
2022-09-23T00:52:06.484Z,98950.25
2022-09-23T00:54:34.221Z,98986.16
2022-09-23T00:57:03.874Z,98984.75
2022-09-23T00:59:32.200Z,99053.19
2022-09-23T01:02:02.253Z,98974.34
2022-09-23T01:04:30.450Z,98970.19
2022-09-23T01:06:57.516Z,99007.28
2022-09-23T01:09:25.359Z,98988.69
2022-09-23T01:12:19.682Z,99014.25
2022-09-23T01:15:09.102Z,99070.88
2022-09-23T01:17:56.906Z,99010.25
2022-09-23T01:20:55.241Z,99080.28
2022-09-23T01:24:15.453Z,99014.00
2022-09-23T01:27:19.488Z,98989.81
2022-09-23T01:30:16.598Z,98976.84
2022-09-23T01:32:56.661Z,98966.28
2022-09-23T01:36:04.521Z,99055.63
2022-09-23T01:38:52.384Z,99037.78
2022-09-23T01:41:28.516Z,98981.22
2022-09-23T01:44:19.025Z,98961.25
2022-09-23T01:47:10.884Z,99042.09
2022-09-23T01:50:24.826Z,99015.16
2022-09-23T01:52:56.126Z,99045.41
2022-09-23T01:55:30.771Z,98973.53
2022-09-23T01:58:06.822Z,98957.75
2022-09-23T02:00:41.454Z,98963.41
2022-09-23T02:03:17.273Z,99060.75
2022-09-23T02:06:28.002Z,99090.44
2022-09-23T02:09:54.128Z,99025.41
2022-09-23T02:12:28.479Z,98989.69
2022-09-23T02:15:23.561Z,99011.72
2022-09-23T02:18:01.888Z,99003.59
2022-09-23T02:20:36.818Z,98968.03
2022-09-23T02:23:08.674Z,99006.22
2022-09-23T02:25:57.039Z,98999.44
2022-09-23T02:28:44.495Z,99013.25
2022-09-23T02:31:57.977Z,98976.25
2022-09-23T02:34:50.044Z,98976.81
2022-09-23T02:37:36.379Z,99002.66
2022-09-23T02:40:42.587Z,98962.41
2022-09-23T02:43:22.438Z,99013.00
2022-09-23T02:45:50.194Z,99038.03
2022-09-23T02:48:26.342Z,99005.38
2022-09-23T02:50:54.387Z,98951.22
2022-09-23T02:53:24.524Z,98923.31
2022-09-23T02:55:51.594Z,98965.00
2022-09-23T02:58:18.740Z,98952.75
2022-09-23T03:01:07.038Z,98968.13
2022-09-23T03:03:58.362Z,98920.56
2022-09-23T03:06:51.183Z,98958.06
2022-09-23T03:09:36.193Z,98992.81
2022-09-23T03:12:34.319Z,99011.91
2022-09-23T03:15:31.235Z,98947.72
2022-09-23T03:18:35.124Z,98968.59
2022-09-23T03:21:06.315Z,98925.44
2022-09-23T03:23:40.677Z,98958.34
2022-09-23T03:26:14.665Z,99037.69
2022-09-23T03:28:45.188Z,99063.03
2022-09-23T03:31:14.376Z,99037.16
2022-09-23T03:33:48.188Z,99007.41
2022-09-23T03:36:40.816Z,98971.84
2022-09-23T03:39:13.889Z,98944.91
2022-09-23T03:41:50.799Z,98942.03
2022-09-23T03:44:19.648Z,98959.00
2022-09-23T03:46:49.971Z,98943.22
2022-09-23T03:49:24.262Z,98947.25
2022-09-23T03:51:51.331Z,99005.69
2022-09-23T03:54:20.349Z,99025.72
2022-09-23T03:56:48.043Z,99020.88
2022-09-23T03:59:16.461Z,99010.56
2022-09-23T04:01:44.029Z,99025.84
2022-09-23T04:04:11.006Z,99019.38
2022-09-23T04:06:38.038Z,98990.50
2022-09-23T04:09:04.935Z,99025.44
2022-09-23T04:11:32.463Z,99055.59
2022-09-23T04:13:59.688Z,99074.06
2022-09-23T04:16:27.246Z,98995.44
2022-09-23T04:18:54.740Z,98969.19
2022-09-23T04:21:22.211Z,98947.94
2022-09-23T04:23:49.104Z,98972.63
2022-09-23T04:26:16.664Z,98940.56
2022-09-23T04:28:43.642Z,98955.91
2022-09-23T04:31:11.124Z,99004.75
2022-09-23T04:33:38.063Z,98962.84
2022-09-23T04:36:05.523Z,98981.88
2022-09-23T04:38:32.470Z,99013.34
2022-09-23T04:40:59.607Z,98974.09
2022-09-23T04:43:26.525Z,98955.84
2022-09-23T04:46:02.278Z,98967.41
2022-09-23T04:48:29.612Z,98963.88
2022-09-23T04:51:10.717Z,98978.38
2022-09-23T04:53:39.836Z,98983.31
2022-09-23T04:56:19.650Z,98943.25
2022-09-23T04:58:47.252Z,98951.16
2022-09-23T05:01:27.485Z,98954.53
2022-09-23T05:03:58.608Z,98956.59
2022-09-23T05:06:25.719Z,99004.41
2022-09-23T05:08:57.752Z,99006.72
2022-09-23T05:11:25.987Z,98971.66
2022-09-23T05:13:54.595Z,99025.69
2022-09-23T05:16:23.740Z,98959.53
2022-09-23T05:18:52.457Z,99022.16
2022-09-23T05:21:23.474Z,99082.19
2022-09-23T05:23:55.263Z,99065.25
2022-09-23T05:26:27.734Z,98977.69
2022-09-23T05:28:55.991Z,99044.97
2022-09-23T05:31:26.912Z,99041.56
2022-09-23T05:34:00.928Z,99023.81
2022-09-23T05:36:34.289Z,99044.22
2022-09-23T05:39:05.696Z,98985.38
2022-09-23T05:41:33.799Z,99083.88
2022-09-23T05:44:01.292Z,99000.06
2022-09-23T05:46:30.817Z,98993.00
2022-09-23T05:49:02.880Z,99040.97
2022-09-23T05:51:31.650Z,99119.88
2022-09-23T05:53:59.996Z,99015.78
2022-09-23T05:56:28.610Z,99084.47
2022-09-23T05:58:58.477Z,99124.31
2022-09-23T06:01:29.219Z,99123.31
2022-09-23T06:03:58.482Z,99211.84
2022-09-23T06:06:39.527Z,99118.34
2022-09-23T06:09:09.999Z,99125.47
2022-09-23T06:11:37.866Z,99120.28
2022-09-23T06:14:05.555Z,99152.06
2022-09-23T06:19:20.259Z,99153.81
2022-09-23T06:21:49.037Z,99117.44
2022-09-23T06:24:19.906Z,99117.78
2022-09-23T06:26:49.416Z,99085.53
2022-09-23T06:29:16.393Z,99117.91
2022-09-23T06:31:43.945Z,99122.03
2022-09-23T06:34:14.380Z,99101.13
2022-09-23T06:36:46.371Z,99139.53
2022-09-23T06:39:16.899Z,99123.00
2022-09-23T06:41:46.849Z,99129.78
2022-09-23T06:44:14.966Z,99168.66
2022-09-23T06:46:42.464Z,99107.59
2022-09-23T06:49:09.623Z,99151.78
2022-09-23T06:51:36.668Z,99188.22
2022-09-23T06:54:04.100Z,99112.78
2022-09-23T06:56:36.118Z,99177.38
2022-09-23T06:59:05.347Z,99162.44
2022-09-23T07:01:33.403Z,99123.72
2022-09-23T07:04:01.701Z,99106.16
2022-09-23T07:06:29.055Z,99151.44
2022-09-23T07:08:55.951Z,99219.50
2022-09-23T07:11:23.042Z,99185.59
2022-09-23T07:13:50.144Z,99182.03
2022-09-23T07:16:17.113Z,99173.75
2022-09-23T07:18:45.032Z,99202.34
2022-09-23T07:21:15.875Z,99161.03
2022-09-23T07:23:50.007Z,99165.19
2022-09-23T07:26:19.135Z,99169.66
2022-09-23T07:28:46.892Z,99219.19
2022-09-23T07:31:26.129Z,99162.59
2022-09-23T07:33:57.948Z,99173.72
2022-09-23T07:36:27.925Z,99170.22
2022-09-23T07:39:00.678Z,99206.69
2022-09-23T07:41:28.962Z,99176.53
2022-09-23T07:43:58.849Z,99175.78
2022-09-23T07:46:30.044Z,99201.16
2022-09-23T07:48:57.739Z,99251.09
2022-09-23T07:51:36.078Z,99174.31
2022-09-23T07:54:07.852Z,99168.75
2022-09-23T07:56:36.016Z,99206.03
2022-09-23T07:59:04.080Z,99158.53
2022-09-23T08:01:34.773Z,99236.88
2022-09-23T08:04:11.244Z,99201.28
2022-09-23T08:06:57.638Z,99224.25
2022-09-23T08:09:31.956Z,99265.38
2022-09-23T08:11:59.123Z,99238.47
2022-09-23T08:14:26.181Z,99229.38
2022-09-23T08:16:54.213Z,99285.09
2022-09-23T08:19:21.127Z,99259.75
2022-09-23T08:21:49.912Z,99246.25
2022-09-23T08:24:20.815Z,99218.56
2022-09-23T08:26:49.174Z,99227.22
2022-09-23T08:29:19.288Z,99228.78
2022-09-23T08:31:46.575Z,99260.28
2022-09-23T08:34:13.947Z,99199.41
2022-09-23T08:36:40.826Z,99246.16
2022-09-23T08:39:08.848Z,99277.59
2022-09-23T08:42:02.078Z,99252.41
2022-09-23T08:44:57.028Z,99256.16
2022-09-23T08:47:35.486Z,99272.78
2022-09-23T08:50:25.007Z,99260.59
2022-09-23T08:53:23.038Z,99262.53
2022-09-23T08:55:54.066Z,99274.47
2022-09-23T08:58:39.494Z,99281.81
2022-09-23T09:01:34.703Z,99217.53
2022-09-23T09:04:14.502Z,99301.22
2022-09-23T09:07:34.606Z,99253.81
2022-09-23T09:10:25.484Z,99263.28
2022-09-23T09:13:07.616Z,99244.22
2022-09-23T09:15:46.663Z,99309.38
2022-09-23T09:18:19.956Z,99292.25
2022-09-23T09:20:57.226Z,99293.09
2022-09-23T09:23:56.641Z,99294.44
2022-09-23T09:26:34.528Z,99270.44
2022-09-23T09:29:34.085Z,99287.16
2022-09-23T09:32:38.414Z,99269.53
2022-09-23T09:35:33.269Z,99284.84
2022-09-23T09:38:01.776Z,99297.50
2022-09-23T09:40:29.106Z,99317.00
2022-09-23T09:42:56.041Z,99318.50
2022-09-23T09:46:02.549Z,99291.53
2022-09-23T09:48:50.312Z,99305.16
2022-09-23T09:51:27.988Z,99264.91
2022-09-23T09:54:15.027Z,99348.91
2022-09-23T09:56:44.801Z,99281.91
2022-09-23T09:59:23.480Z,99260.53
2022-09-23T10:02:10.633Z,99361.41
2022-09-23T10:04:37.785Z,99347.50
2022-09-23T10:07:16.104Z,99336.72
2022-09-23T10:09:51.142Z,99257.31
2022-09-23T10:12:26.122Z,99311.75
2022-09-23T10:14:57.517Z,99332.84
2022-09-23T10:17:36.398Z,99358.66
2022-09-23T10:20:09.090Z,99313.41
2022-09-23T10:22:40.515Z,99358.25
2022-09-23T10:25:16.834Z,99261.03
2022-09-23T10:27:45.881Z,99301.72
2022-09-23T10:30:24.486Z,99248.97
2022-09-23T10:32:57.557Z,99262.03
2022-09-23T10:35:26.548Z,99262.53
2022-09-23T10:37:55.937Z,99223.22
2022-09-23T10:44:37.285Z,99233.97
2022-09-23T10:47:35.976Z,99323.81
2022-09-23T10:50:11.613Z,99220.41
2022-09-23T10:52:46.701Z,99310.25
2022-09-23T10:55:57.682Z,99375.28
2022-09-23T10:58:54.483Z,99300.31
2022-09-23T11:01:43.874Z,99235.69
2022-09-23T11:04:32.631Z,99264.97
2022-09-23T11:07:39.373Z,99300.91
2022-09-23T11:10:44.833Z,99312.84
2022-09-23T11:13:36.070Z,99248.31
2022-09-23T11:16:18.352Z,99230.81
2022-09-23T11:19:18.596Z,99275.19
2022-09-23T11:22:01.806Z,99190.81
2022-09-23T11:25:17.787Z,99246.53
2022-09-23T11:28:21.045Z,99239.19
2022-09-23T11:31:05.321Z,99259.00
2022-09-23T11:33:55.890Z,99254.50
2022-09-23T11:36:32.653Z,99185.22
2022-09-23T11:39:10.076Z,99201.22
2022-09-23T11:41:39.774Z,99185.47
2022-09-23T11:44:39.720Z,99204.88
2022-09-23T11:47:16.455Z,99172.84
2022-09-23T11:50:32.619Z,99175.31
2022-09-23T11:53:48.456Z,99166.47
2022-09-23T11:56:35.561Z,99244.19
2022-09-23T11:59:42.138Z,99141.06
2022-09-23T12:02:28.207Z,99144.09
2022-09-23T12:05:17.343Z,99082.81
2022-09-23T12:08:20.243Z,99125.41
2022-09-23T12:11:18.752Z,99159.03
2022-09-23T12:14:23.903Z,99109.75
2022-09-23T12:17:16.695Z,99153.16
2022-09-23T12:20:42.412Z,99162.22
2022-09-23T12:23:27.420Z,99196.94
2022-09-23T12:26:01.919Z,99213.25
2022-09-23T12:28:43.473Z,99189.28
2022-09-23T12:31:19.225Z,99170.78
2022-09-23T12:34:30.318Z,99117.44
2022-09-23T12:37:04.768Z,99144.72
2022-09-23T12:39:35.494Z,99185.09
2022-09-23T12:42:16.277Z,99093.50
2022-09-23T12:44:47.202Z,99133.81
2022-09-23T12:47:28.322Z,99220.41
2022-09-23T12:50:01.148Z,99123.19
2022-09-23T12:52:33.531Z,99111.31
2022-09-23T12:55:35.406Z,99155.44
2022-09-23T12:58:02.479Z,99091.03
2022-09-23T13:00:34.087Z,99127.91
2022-09-23T13:03:21.274Z,99035.03
2022-09-23T13:06:19.454Z,99057.00
2022-09-23T13:08:47.555Z,99136.84
2022-09-23T13:11:17.611Z,99076.34
2022-09-23T13:13:46.156Z,99017.09
2022-09-23T13:16:45.780Z,99086.72
2022-09-23T13:19:39.332Z,99012.84
2022-09-23T13:22:11.183Z,99040.66
2022-09-23T13:24:53.419Z,99041.38
2022-09-23T13:27:22.320Z,99075.63
2022-09-23T13:30:07.722Z,99126.44
2022-09-23T13:32:42.391Z,99060.84
2022-09-23T13:35:32.835Z,99125.22
2022-09-23T13:38:09.133Z,99019.44
2022-09-23T13:40:37.013Z,99001.81
2022-09-23T13:43:09.363Z,98935.13
2022-09-23T13:45:41.367Z,99080.16
2022-09-23T13:48:15.575Z,99006.44
2022-09-23T13:50:50.697Z,99038.59
2022-09-23T13:53:30.248Z,99014.53
2022-09-23T13:56:16.890Z,99040.28
2022-09-23T13:58:43.968Z,99048.00
2022-09-23T14:01:29.888Z,98986.47
2022-09-23T14:03:57.120Z,98998.47
2022-09-23T14:06:26.686Z,99001.91
2022-09-23T14:08:54.074Z,99047.06
2022-09-23T14:11:29.399Z,98997.06
2022-09-23T14:13:57.023Z,98982.69
2022-09-23T14:16:28.098Z,99039.88
2022-09-23T14:19:00.349Z,99018.78
2022-09-23T14:21:39.988Z,98987.25
2022-09-23T14:24:20.627Z,98964.13
2022-09-23T14:27:01.790Z,98979.66
2022-09-23T14:29:38.192Z,98986.13
2022-09-23T14:32:23.758Z,98953.75
2022-09-23T14:35:08.198Z,98986.69
2022-09-23T14:37:56.496Z,98974.50
2022-09-23T14:40:49.805Z,98910.31
2022-09-23T14:43:26.767Z,98977.75
2022-09-23T14:45:58.739Z,98874.06
2022-09-23T14:48:33.451Z,98930.78
2022-09-23T14:51:14.486Z,98908.25
2022-09-23T14:53:49.139Z,98947.94
2022-09-23T14:56:20.303Z,98949.78
2022-09-23T14:59:00.771Z,98958.53
2022-09-23T15:01:30.995Z,98947.78
2022-09-23T15:04:01.248Z,98962.00
2022-09-23T15:06:28.436Z,98951.38
2022-09-23T15:08:56.168Z,98957.63
2022-09-23T15:11:23.255Z,98985.59
2022-09-23T15:13:53.103Z,98974.09
2022-09-23T15:16:28.021Z,98938.63
2022-09-23T15:19:00.825Z,98962.47
2022-09-23T15:21:44.706Z,98973.56
2022-09-23T15:24:38.381Z,98903.78
2022-09-23T15:27:27.227Z,98910.47
2022-09-23T15:29:54.714Z,98947.16
2022-09-23T15:32:22.057Z,98910.59
2022-09-23T15:34:50.557Z,98943.09
2022-09-23T15:37:17.776Z,98955.44
2022-09-23T15:39:44.835Z,98936.69
2022-09-23T15:42:12.046Z,98871.31
2022-09-23T15:44:39.061Z,98910.16
2022-09-23T15:47:06.623Z,98939.63
2022-09-23T15:49:41.800Z,98960.28
2022-09-23T15:52:10.724Z,98957.19
2022-09-23T15:54:37.899Z,98912.38
2022-09-23T15:57:05.578Z,98923.91
2022-09-23T15:59:33.131Z,98934.06
2022-09-23T16:02:06.691Z,98914.34
2022-09-23T16:04:34.130Z,98914.00
2022-09-23T16:07:01.633Z,98938.56
2022-09-23T16:09:31.517Z,98922.63
2022-09-23T16:11:58.450Z,98902.47
2022-09-23T16:14:25.313Z,98889.66
2022-09-23T16:16:52.414Z,98943.81
2022-09-23T16:19:19.352Z,98858.59
2022-09-23T16:21:46.402Z,98904.25
2022-09-23T16:24:19.158Z,98927.44
2022-09-23T16:26:48.113Z,98919.25
2022-09-23T16:29:15.678Z,98839.38
2022-09-23T16:31:43.026Z,98864.88
2022-09-23T16:34:10.069Z,98862.03
2022-09-23T16:36:43.277Z,98890.59
2022-09-23T16:39:13.064Z,98875.34
2022-09-23T16:41:41.051Z,98862.47
2022-09-23T16:44:10.755Z,98851.22
2022-09-23T16:46:37.949Z,98876.97
2022-09-23T16:49:05.037Z,98878.13
2022-09-23T16:51:38.916Z,98825.38
2022-09-23T16:54:12.189Z,98854.66
2022-09-23T16:56:45.186Z,98835.63
2022-09-23T16:59:15.296Z,98870.59
2022-09-23T17:02:02.097Z,98882.91
2022-09-23T17:04:29.606Z,98855.09
2022-09-23T17:06:56.701Z,98862.03
2022-09-23T17:09:30.332Z,98833.75
2022-09-23T17:12:20.093Z,98864.31
2022-09-23T17:14:47.115Z,98803.34
2022-09-23T17:17:13.988Z,98864.84
2022-09-23T17:19:41.435Z,98861.50
2022-09-23T17:22:09.204Z,98831.97
2022-09-23T17:24:36.154Z,98840.72
2022-09-23T17:27:03.380Z,98858.94
2022-09-23T17:29:30.521Z,98822.91
2022-09-23T17:31:58.048Z,98865.75
2022-09-23T17:34:25.530Z,98826.72
2022-09-23T17:36:52.359Z,98878.84
2022-09-23T17:39:19.291Z,98874.38
2022-09-23T17:41:46.393Z,98834.09
2022-09-23T17:44:14.279Z,98824.13
2022-09-23T17:46:41.197Z,98862.69
2022-09-23T17:49:09.205Z,98838.97
2022-09-23T17:51:36.744Z,98829.91
2022-09-23T17:54:03.988Z,98828.66
2022-09-23T17:56:30.978Z,98862.78
2022-09-23T17:59:04.437Z,98817.72
2022-09-23T18:01:31.343Z,98842.28
2022-09-23T18:04:01.655Z,98785.00
2022-09-23T18:06:31.730Z,98841.19
2022-09-23T18:09:06.938Z,98817.75
2022-09-23T18:11:37.431Z,98836.31
2022-09-23T18:14:11.834Z,98849.81
2022-09-23T18:16:41.370Z,98788.22
2022-09-23T18:19:13.470Z,98882.94
2022-09-23T18:21:44.647Z,98793.72
2022-09-23T18:27:00.411Z,98835.53
2022-09-23T18:29:27.540Z,98855.72
2022-09-23T18:31:54.902Z,98822.25
2022-09-23T18:34:22.253Z,98860.06
2022-09-23T18:36:49.295Z,98870.25
2022-09-23T18:39:16.881Z,98889.94
2022-09-23T18:41:43.831Z,98777.88
2022-09-23T18:44:10.915Z,98831.91
2022-09-23T18:46:38.097Z,98817.59
2022-09-23T18:49:23.765Z,98798.81
2022-09-23T18:51:57.983Z,98747.50
2022-09-23T18:54:27.912Z,98753.44
2022-09-23T18:56:56.555Z,98742.28
2022-09-23T18:59:27.830Z,98759.72
2022-09-23T19:01:55.756Z,98772.31
2022-09-23T19:04:25.269Z,98745.06
2022-09-23T19:06:56.325Z,98755.72
2022-09-23T19:09:23.577Z,98786.03
2022-09-23T19:11:52.416Z,98805.00
2022-09-23T19:14:19.968Z,98779.22
2022-09-23T19:16:49.035Z,98674.91
2022-09-23T19:19:16.395Z,98720.53
2022-09-23T19:21:43.528Z,98778.00
2022-09-23T19:24:15.549Z,98793.69
2022-09-23T19:26:43.671Z,98758.75
2022-09-23T19:29:16.510Z,98801.34
2022-09-23T19:31:44.194Z,98821.19
2022-09-23T19:34:17.793Z,98795.94
2022-09-23T19:36:46.891Z,98710.88
2022-09-23T19:39:23.605Z,98816.19
2022-09-23T19:41:52.459Z,98721.94
2022-09-23T19:44:20.121Z,98759.63
2022-09-23T19:46:54.890Z,98802.22
2022-09-23T19:49:24.030Z,98749.25
2022-09-23T19:51:51.003Z,98709.13
2022-09-23T19:54:20.838Z,98739.06
2022-09-23T19:56:50.072Z,98694.84
2022-09-23T19:59:18.997Z,98789.81
2022-09-23T20:01:47.870Z,98685.28
2022-09-23T20:04:16.162Z,98774.59
2022-09-23T20:06:43.304Z,98824.31
2022-09-23T20:09:10.421Z,98739.50
2022-09-23T20:11:37.413Z,98767.16
2022-09-23T20:14:06.453Z,98782.16
2022-09-23T20:16:36.760Z,98797.56
2022-09-23T20:19:05.528Z,98685.50
2022-09-23T20:21:33.942Z,98700.75
2022-09-23T20:24:02.275Z,98728.88
2022-09-23T20:26:47.592Z,98793.81
2022-09-23T20:29:15.196Z,98761.03
2022-09-23T20:31:42.418Z,98817.44
2022-09-23T20:34:10.716Z,98810.88
2022-09-23T20:36:39.652Z,98723.94
2022-09-23T20:39:06.773Z,98788.59
2022-09-23T20:41:37.596Z,98754.09
2022-09-23T20:44:07.956Z,98766.19
2022-09-23T20:46:35.856Z,98781.50
2022-09-23T20:49:04.922Z,98768.28
2022-09-23T20:51:34.886Z,98736.69
2022-09-23T20:54:02.275Z,98783.38
2022-09-23T20:56:29.899Z,98783.69
2022-09-23T20:59:04.960Z,98730.50
2022-09-23T21:01:36.876Z,98828.13
2022-09-23T21:04:06.049Z,98654.69
2022-09-23T21:06:36.643Z,98647.47
2022-09-23T21:09:05.700Z,98805.09
2022-09-23T21:11:32.571Z,98816.28
2022-09-23T21:14:01.092Z,98792.09
2022-09-23T21:16:28.339Z,98739.59
2022-09-23T21:18:55.256Z,98694.19
2022-09-23T21:21:22.676Z,98764.97
2022-09-23T21:23:51.099Z,98663.22
2022-09-23T21:26:26.165Z,98684.78
2022-09-23T21:28:59.864Z,98778.97
2022-09-23T21:31:33.689Z,98837.13
2022-09-23T21:34:06.965Z,98668.34
2022-09-23T21:36:38.234Z,98667.97
2022-09-23T21:39:06.948Z,98702.75
2022-09-23T21:41:34.492Z,98782.50
2022-09-23T21:44:04.705Z,98807.44
2022-09-23T21:46:35.150Z,98797.16
2022-09-23T21:49:03.679Z,98780.31
2022-09-23T21:51:41.052Z,98735.63
2022-09-23T21:54:14.224Z,98678.34
2022-09-23T21:56:42.238Z,98739.59
2022-09-23T21:59:09.616Z,98770.09
2022-09-23T22:01:44.270Z,98723.88
2022-09-23T22:04:17.788Z,98649.81
2022-09-23T22:06:45.925Z,98679.06
2022-09-23T22:09:18.881Z,98744.38
2022-09-23T22:12:05.399Z,98709.69
2022-09-23T22:14:32.382Z,98697.84
2022-09-23T22:17:02.826Z,98790.56
2022-09-23T22:19:40.218Z,98713.75
2022-09-23T22:22:14.737Z,98666.06
2022-09-23T22:24:43.399Z,98789.47
2022-09-23T22:27:12.295Z,98720.50
2022-09-23T22:29:58.227Z,98803.34
2022-09-23T22:32:40.754Z,98730.06
2022-09-23T22:35:11.372Z,98721.47
2022-09-23T22:37:39.362Z,98803.47
2022-09-23T22:40:10.049Z,98780.19
2022-09-23T22:42:37.531Z,98775.47
2022-09-23T22:45:05.764Z,98763.88
2022-09-23T22:47:38.074Z,98823.13
2022-09-23T22:50:08.039Z,98730.59
2022-09-23T22:52:35.223Z,98789.06
2022-09-23T22:55:03.485Z,98805.06
2022-09-23T22:57:31.394Z,98763.75
2022-09-23T22:59:58.384Z,98758.41
2022-09-23T23:02:26.049Z,98794.66
2022-09-23T23:04:53.355Z,98784.28
2022-09-23T23:07:21.328Z,98768.59
2022-09-23T23:09:52.454Z,98799.88
2022-09-23T23:12:20.797Z,98796.63
2022-09-23T23:14:49.105Z,98833.75
2022-09-23T23:17:17.106Z,98812.25
2022-09-23T23:19:44.179Z,98774.28
2022-09-23T23:22:11.209Z,98802.78
2022-09-23T23:24:38.167Z,98791.84
2022-09-23T23:27:05.432Z,98779.34
2022-09-23T23:29:32.323Z,98759.59
2022-09-23T23:31:59.585Z,98785.72
2022-09-23T23:34:26.529Z,98770.16
2022-09-23T23:36:56.549Z,98809.53
2022-09-23T23:39:24.934Z,98794.44
2022-09-23T23:41:57.016Z,98791.25
2022-09-23T23:44:25.941Z,98776.94
2022-09-23T23:46:54.480Z,98822.00
2022-09-23T23:49:22.099Z,98810.03
2022-09-23T23:51:49.485Z,98783.16
2022-09-23T23:54:16.537Z,98728.47
2022-09-23T23:56:43.889Z,98762.22
2022-09-23T23:59:11.237Z,98753.38
